sensor_id;sensor_type;location;lat;lon;timestamp;P1;durP1;ratioP1;P2;durP2;ratioP2
16735;SDS011;17990;49.548;9.730;2022-12-18T00:02:22;33.07;;;14.13;;
16735;SDS011;17990;49.548;9.730;2022-12-18T00:04:49;34.23;;;13.77;;
16735;SDS011;17990;49.548;9.730;2022-12-18T00:07:16;35.83;;;13.10;;
16735;SDS011;17990;49.548;9.730;2022-12-18T00:09:43;29.53;;;13.23;;
16735;SDS011;17990;49.548;9.730;2022-12-18T00:12:10;29.40;;;13.07;;
16735;SDS011;17990;49.548;9.730;2022-12-18T00:14:38;28.27;;;13.10;;
16735;SDS011;17990;49.548;9.730;2022-12-18T00:17:05;28.37;;;13.20;;
16735;SDS011;17990;49.548;9.730;2022-12-18T00:19:32;30.10;;;12.50;;
16735;SDS011;17990;49.548;9.730;2022-12-18T00:21:59;31.90;;;14.40;;
16735;SDS011;17990;49.548;9.730;2022-12-18T00:24:26;30.50;;;14.10;;
16735;SDS011;17990;49.548;9.730;2022-12-18T00:26:52;32.27;;;13.37;;
16735;SDS011;17990;49.548;9.730;2022-12-18T00:29:19;29.47;;;13.00;;
16735;SDS011;17990;49.548;9.730;2022-12-18T00:31:48;46.67;;;15.77;;
16735;SDS011;17990;49.548;9.730;2022-12-18T00:34:14;36.13;;;14.37;;
16735;SDS011;17990;49.548;9.730;2022-12-18T00:36:41;34.43;;;14.47;;
16735;SDS011;17990;49.548;9.730;2022-12-18T00:39:10;26.63;;;12.50;;
16735;SDS011;17990;49.548;9.730;2022-12-18T00:41:37;31.17;;;13.50;;
16735;SDS011;17990;49.548;9.730;2022-12-18T00:44:21;25.97;;;12.37;;
16735;SDS011;17990;49.548;9.730;2022-12-18T00:46:49;30.67;;;12.67;;
16735;SDS011;17990;49.548;9.730;2022-12-18T00:49:16;31.80;;;13.27;;
16735;SDS011;17990;49.548;9.730;2022-12-18T00:51:45;43.03;;;15.33;;
16735;SDS011;17990;49.548;9.730;2022-12-18T00:54:12;34.70;;;16.07;;
16735;SDS011;17990;49.548;9.730;2022-12-18T00:56:39;31.77;;;15.77;;
16735;SDS011;17990;49.548;9.730;2022-12-18T00:59:06;38.60;;;15.27;;
16735;SDS011;17990;49.548;9.730;2022-12-18T01:01:33;37.90;;;15.80;;
16735;SDS011;17990;49.548;9.730;2022-12-18T01:04:02;31.10;;;14.17;;
16735;SDS011;17990;49.548;9.730;2022-12-18T01:06:30;27.37;;;13.63;;
16735;SDS011;17990;49.548;9.730;2022-12-18T01:08:57;28.60;;;13.80;;
16735;SDS011;17990;49.548;9.730;2022-12-18T01:11:24;28.30;;;13.93;;
16735;SDS011;17990;49.548;9.730;2022-12-18T01:13:51;27.30;;;13.50;;
16735;SDS011;17990;49.548;9.730;2022-12-18T01:16:19;33.13;;;15.60;;
16735;SDS011;17990;49.548;9.730;2022-12-18T01:18:46;30.73;;;14.33;;
16735;SDS011;17990;49.548;9.730;2022-12-18T01:21:14;29.87;;;13.93;;
16735;SDS011;17990;49.548;9.730;2022-12-18T01:23:42;30.17;;;13.60;;
16735;SDS011;17990;49.548;9.730;2022-12-18T01:26:11;32.03;;;13.77;;
16735;SDS011;17990;49.548;9.730;2022-12-18T01:28:41;36.73;;;15.63;;
16735;SDS011;17990;49.548;9.730;2022-12-18T01:31:09;36.93;;;14.30;;
16735;SDS011;17990;49.548;9.730;2022-12-18T01:33:41;35.20;;;14.63;;
16735;SDS011;17990;49.548;9.730;2022-12-18T01:36:15;38.43;;;15.07;;
16735;SDS011;17990;49.548;9.730;2022-12-18T01:38:45;35.20;;;15.23;;
16735;SDS011;17990;49.548;9.730;2022-12-18T01:41:13;40.90;;;16.10;;
16735;SDS011;17990;49.548;9.730;2022-12-18T01:43:42;31.87;;;15.97;;
16735;SDS011;17990;49.548;9.730;2022-12-18T01:46:17;42.80;;;16.03;;
16735;SDS011;17990;49.548;9.730;2022-12-18T01:48:47;29.67;;;14.83;;
16735;SDS011;17990;49.548;9.730;2022-12-18T01:51:19;35.83;;;15.80;;
16735;SDS011;17990;49.548;9.730;2022-12-18T01:53:46;41.30;;;15.27;;
16735;SDS011;17990;49.548;9.730;2022-12-18T01:56:14;31.23;;;14.30;;
16735;SDS011;17990;49.548;9.730;2022-12-18T01:58:48;36.17;;;15.30;;
16735;SDS011;17990;49.548;9.730;2022-12-18T02:01:20;29.20;;;14.43;;
16735;SDS011;17990;49.548;9.730;2022-12-18T02:03:49;32.53;;;13.90;;
16735;SDS011;17990;49.548;9.730;2022-12-18T02:06:20;34.50;;;13.50;;
16735;SDS011;17990;49.548;9.730;2022-12-18T02:08:57;35.27;;;14.17;;
16735;SDS011;17990;49.548;9.730;2022-12-18T02:11:36;30.07;;;13.77;;
16735;SDS011;17990;49.548;9.730;2022-12-18T02:14:16;32.00;;;14.17;;
16735;SDS011;17990;49.548;9.730;2022-12-18T02:16:50;30.10;;;13.77;;
16735;SDS011;17990;49.548;9.730;2022-12-18T02:19:25;27.20;;;13.37;;
16735;SDS011;17990;49.548;9.730;2022-12-18T02:22:16;33.07;;;13.97;;
16735;SDS011;17990;49.548;9.730;2022-12-18T02:25:00;37.77;;;15.10;;
16735;SDS011;17990;49.548;9.730;2022-12-18T02:27:44;36.27;;;16.03;;
16735;SDS011;17990;49.548;9.730;2022-12-18T02:30:13;40.00;;;14.93;;
16735;SDS011;17990;49.548;9.730;2022-12-18T02:32:42;33.87;;;14.93;;
16735;SDS011;17990;49.548;9.730;2022-12-18T02:35:13;34.87;;;14.40;;
16735;SDS011;17990;49.548;9.730;2022-12-18T02:37:45;32.43;;;14.77;;
16735;SDS011;17990;49.548;9.730;2022-12-18T02:40:14;38.17;;;15.30;;
16735;SDS011;17990;49.548;9.730;2022-12-18T02:42:44;30.53;;;13.33;;
16735;SDS011;17990;49.548;9.730;2022-12-18T02:45:11;32.03;;;13.67;;
16735;SDS011;17990;49.548;9.730;2022-12-18T02:47:39;32.37;;;14.67;;
16735;SDS011;17990;49.548;9.730;2022-12-18T02:50:11;27.80;;;12.83;;
16735;SDS011;17990;49.548;9.730;2022-12-18T02:52:46;30.53;;;13.73;;
16735;SDS011;17990;49.548;9.730;2022-12-18T02:55:26;35.23;;;13.77;;
16735;SDS011;17990;49.548;9.730;2022-12-18T02:58:08;31.87;;;13.70;;
16735;SDS011;17990;49.548;9.730;2022-12-18T03:00:43;38.63;;;14.23;;
16735;SDS011;17990;49.548;9.730;2022-12-18T03:03:18;26.80;;;12.53;;
16735;SDS011;17990;49.548;9.730;2022-12-18T03:05:52;34.97;;;13.60;;
16735;SDS011;17990;49.548;9.730;2022-12-18T03:08:26;34.13;;;13.80;;
16735;SDS011;17990;49.548;9.730;2022-12-18T03:10:56;29.20;;;12.87;;
16735;SDS011;17990;49.548;9.730;2022-12-18T03:13:30;26.03;;;12.50;;
16735;SDS011;17990;49.548;9.730;2022-12-18T03:16:01;37.17;;;14.83;;
16735;SDS011;17990;49.548;9.730;2022-12-18T03:18:33;30.70;;;14.00;;
16735;SDS011;17990;49.548;9.730;2022-12-18T03:21:05;28.53;;;13.37;;
16735;SDS011;17990;49.548;9.730;2022-12-18T03:23:35;31.53;;;12.83;;
16735;SDS011;17990;49.548;9.730;2022-12-18T03:26:07;27.40;;;13.67;;
16735;SDS011;17990;49.548;9.730;2022-12-18T03:28:42;29.73;;;13.13;;
16735;SDS011;17990;49.548;9.730;2022-12-18T03:31:15;31.33;;;13.87;;
16735;SDS011;17990;49.548;9.730;2022-12-18T03:33:45;31.53;;;13.00;;
16735;SDS011;17990;49.548;9.730;2022-12-18T03:36:18;31.77;;;12.70;;
16735;SDS011;17990;49.548;9.730;2022-12-18T03:38:45;31.00;;;13.10;;
16735;SDS011;17990;49.548;9.730;2022-12-18T03:41:14;30.53;;;13.67;;
16735;SDS011;17990;49.548;9.730;2022-12-18T03:43:49;26.73;;;12.50;;
16735;SDS011;17990;49.548;9.730;2022-12-18T03:46:24;29.37;;;12.53;;
16735;SDS011;17990;49.548;9.730;2022-12-18T03:48:56;29.77;;;12.93;;
16735;SDS011;17990;49.548;9.730;2022-12-18T03:51:31;24.23;;;11.20;;
16735;SDS011;17990;49.548;9.730;2022-12-18T03:54:03;31.47;;;13.20;;
16735;SDS011;17990;49.548;9.730;2022-12-18T03:56:33;25.47;;;12.93;;
16735;SDS011;17990;49.548;9.730;2022-12-18T03:59:06;29.50;;;13.67;;
16735;SDS011;17990;49.548;9.730;2022-12-18T04:01:37;34.30;;;14.30;;
16735;SDS011;17990;49.548;9.730;2022-12-18T04:04:07;33.57;;;13.80;;
16735;SDS011;17990;49.548;9.730;2022-12-18T04:06:36;30.93;;;13.73;;
16735;SDS011;17990;49.548;9.730;2022-12-18T04:09:05;31.33;;;14.27;;
16735;SDS011;17990;49.548;9.730;2022-12-18T04:11:32;29.53;;;12.17;;
16735;SDS011;17990;49.548;9.730;2022-12-18T04:13:59;26.20;;;12.20;;
16735;SDS011;17990;49.548;9.730;2022-12-18T04:16:27;29.90;;;13.13;;
16735;SDS011;17990;49.548;9.730;2022-12-18T04:18:54;26.47;;;12.97;;
16735;SDS011;17990;49.548;9.730;2022-12-18T04:21:21;30.37;;;13.20;;
16735;SDS011;17990;49.548;9.730;2022-12-18T04:23:48;25.47;;;13.30;;
16735;SDS011;17990;49.548;9.730;2022-12-18T04:26:15;38.60;;;14.37;;
16735;SDS011;17990;49.548;9.730;2022-12-18T04:28:42;31.47;;;14.17;;
16735;SDS011;17990;49.548;9.730;2022-12-18T04:31:09;29.60;;;12.90;;
16735;SDS011;17990;49.548;9.730;2022-12-18T04:33:37;25.40;;;12.90;;
16735;SDS011;17990;49.548;9.730;2022-12-18T04:36:04;29.63;;;13.33;;
16735;SDS011;17990;49.548;9.730;2022-12-18T04:38:32;34.10;;;13.63;;
16735;SDS011;17990;49.548;9.730;2022-12-18T04:40:59;25.57;;;12.30;;
16735;SDS011;17990;49.548;9.730;2022-12-18T04:43:26;31.23;;;13.27;;
16735;SDS011;17990;49.548;9.730;2022-12-18T04:45:52;30.60;;;13.70;;
16735;SDS011;17990;49.548;9.730;2022-12-18T04:48:20;39.70;;;15.07;;
16735;SDS011;17990;49.548;9.730;2022-12-18T04:50:48;33.63;;;14.37;;
16735;SDS011;17990;49.548;9.730;2022-12-18T04:53:15;28.43;;;12.57;;
16735;SDS011;17990;49.548;9.730;2022-12-18T04:55:42;32.27;;;14.27;;
16735;SDS011;17990;49.548;9.730;2022-12-18T04:58:08;29.07;;;13.37;;
16735;SDS011;17990;49.548;9.730;2022-12-18T05:00:35;24.50;;;11.70;;
16735;SDS011;17990;49.548;9.730;2022-12-18T05:03:02;30.23;;;12.90;;
16735;SDS011;17990;49.548;9.730;2022-12-18T05:05:29;35.20;;;12.83;;
16735;SDS011;17990;49.548;9.730;2022-12-18T05:07:58;25.80;;;11.80;;
16735;SDS011;17990;49.548;9.730;2022-12-18T05:10:25;27.07;;;13.20;;
16735;SDS011;17990;49.548;9.730;2022-12-18T05:12:51;30.70;;;13.37;;
16735;SDS011;17990;49.548;9.730;2022-12-18T05:15:26;34.30;;;14.23;;
16735;SDS011;17990;49.548;9.730;2022-12-18T05:17:55;36.00;;;13.80;;
16735;SDS011;17990;49.548;9.730;2022-12-18T05:20:22;33.87;;;15.10;;
16735;SDS011;17990;49.548;9.730;2022-12-18T05:22:50;34.37;;;14.00;;
16735;SDS011;17990;49.548;9.730;2022-12-18T05:25:18;27.40;;;13.47;;
16735;SDS011;17990;49.548;9.730;2022-12-18T05:27:46;56.10;;;17.30;;
16735;SDS011;17990;49.548;9.730;2022-12-18T05:30:13;59.13;;;19.33;;
16735;SDS011;17990;49.548;9.730;2022-12-18T05:32:41;32.47;;;14.17;;
16735;SDS011;17990;49.548;9.730;2022-12-18T05:35:09;30.47;;;13.83;;
16735;SDS011;17990;49.548;9.730;2022-12-18T05:37:37;33.07;;;13.67;;
16735;SDS011;17990;49.548;9.730;2022-12-18T05:40:04;29.17;;;12.50;;
16735;SDS011;17990;49.548;9.730;2022-12-18T05:42:34;29.17;;;12.87;;
16735;SDS011;17990;49.548;9.730;2022-12-18T05:45:01;35.60;;;12.70;;
16735;SDS011;17990;49.548;9.730;2022-12-18T05:47:28;32.70;;;12.97;;
16735;SDS011;17990;49.548;9.730;2022-12-18T05:49:55;32.83;;;13.20;;
16735;SDS011;17990;49.548;9.730;2022-12-18T05:52:22;28.37;;;14.30;;
16735;SDS011;17990;49.548;9.730;2022-12-18T05:54:49;27.53;;;13.13;;
16735;SDS011;17990;49.548;9.730;2022-12-18T05:57:16;30.67;;;13.70;;
16735;SDS011;17990;49.548;9.730;2022-12-18T05:59:44;28.07;;;13.67;;
16735;SDS011;17990;49.548;9.730;2022-12-18T06:02:11;35.17;;;14.27;;
16735;SDS011;17990;49.548;9.730;2022-12-18T06:04:38;36.83;;;14.03;;
16735;SDS011;17990;49.548;9.730;2022-12-18T06:07:05;30.40;;;12.40;;
16735;SDS011;17990;49.548;9.730;2022-12-18T06:09:32;32.27;;;13.53;;
16735;SDS011;17990;49.548;9.730;2022-12-18T06:11:59;31.17;;;14.20;;
16735;SDS011;17990;49.548;9.730;2022-12-18T06:14:26;28.80;;;12.60;;
16735;SDS011;17990;49.548;9.730;2022-12-18T06:16:54;33.03;;;13.10;;
16735;SDS011;17990;49.548;9.730;2022-12-18T06:19:21;30.70;;;12.93;;
16735;SDS011;17990;49.548;9.730;2022-12-18T06:21:48;26.00;;;11.77;;
16735;SDS011;17990;49.548;9.730;2022-12-18T06:24:16;29.03;;;13.30;;
16735;SDS011;17990;49.548;9.730;2022-12-18T06:26:43;30.17;;;12.47;;
16735;SDS011;17990;49.548;9.730;2022-12-18T06:29:10;31.47;;;13.50;;
16735;SDS011;17990;49.548;9.730;2022-12-18T06:31:37;29.70;;;12.73;;
16735;SDS011;17990;49.548;9.730;2022-12-18T06:34:05;30.63;;;12.97;;
16735;SDS011;17990;49.548;9.730;2022-12-18T06:36:32;25.73;;;13.60;;
16735;SDS011;17990;49.548;9.730;2022-12-18T06:38:59;31.20;;;13.47;;
16735;SDS011;17990;49.548;9.730;2022-12-18T06:41:26;35.20;;;14.40;;
16735;SDS011;17990;49.548;9.730;2022-12-18T06:43:53;40.83;;;15.57;;
16735;SDS011;17990;49.548;9.730;2022-12-18T06:46:20;37.47;;;15.23;;
16735;SDS011;17990;49.548;9.730;2022-12-18T06:48:47;38.83;;;15.50;;
16735;SDS011;17990;49.548;9.730;2022-12-18T06:51:18;35.20;;;15.30;;
16735;SDS011;17990;49.548;9.730;2022-12-18T06:53:46;34.97;;;13.70;;
16735;SDS011;17990;49.548;9.730;2022-12-18T06:56:13;33.97;;;14.87;;
16735;SDS011;17990;49.548;9.730;2022-12-18T06:58:40;40.60;;;18.60;;
16735;SDS011;17990;49.548;9.730;2022-12-18T07:01:07;53.63;;;22.20;;
16735;SDS011;17990;49.548;9.730;2022-12-18T07:03:36;48.77;;;19.57;;
16735;SDS011;17990;49.548;9.730;2022-12-18T07:06:04;32.33;;;15.10;;
16735;SDS011;17990;49.548;9.730;2022-12-18T07:08:33;33.47;;;15.10;;
16735;SDS011;17990;49.548;9.730;2022-12-18T07:11:02;33.23;;;12.17;;
16735;SDS011;17990;49.548;9.730;2022-12-18T07:13:30;30.77;;;14.13;;
16735;SDS011;17990;49.548;9.730;2022-12-18T07:16:02;29.23;;;13.83;;
16735;SDS011;17990;49.548;9.730;2022-12-18T07:18:34;26.83;;;12.93;;
16735;SDS011;17990;49.548;9.730;2022-12-18T07:21:04;33.17;;;13.57;;
16735;SDS011;17990;49.548;9.730;2022-12-18T07:23:34;28.70;;;12.73;;
16735;SDS011;17990;49.548;9.730;2022-12-18T07:26:02;37.07;;;14.03;;
16735;SDS011;17990;49.548;9.730;2022-12-18T07:28:29;31.07;;;13.70;;
16735;SDS011;17990;49.548;9.730;2022-12-18T07:30:57;38.03;;;15.80;;
16735;SDS011;17990;49.548;9.730;2022-12-18T07:33:25;40.40;;;14.13;;
16735;SDS011;17990;49.548;9.730;2022-12-18T07:35:52;33.80;;;14.63;;
16735;SDS011;17990;49.548;9.730;2022-12-18T07:38:19;34.97;;;13.03;;
16735;SDS011;17990;49.548;9.730;2022-12-18T07:40:49;49.57;;;13.37;;
16735;SDS011;17990;49.548;9.730;2022-12-18T07:43:15;38.27;;;16.53;;
16735;SDS011;17990;49.548;9.730;2022-12-18T07:45:42;48.03;;;15.03;;
16735;SDS011;17990;49.548;9.730;2022-12-18T07:48:10;40.30;;;17.47;;
16735;SDS011;17990;49.548;9.730;2022-12-18T07:50:37;39.43;;;15.73;;
16735;SDS011;17990;49.548;9.730;2022-12-18T07:53:03;36.30;;;15.73;;
16735;SDS011;17990;49.548;9.730;2022-12-18T07:55:30;33.17;;;16.37;;
16735;SDS011;17990;49.548;9.730;2022-12-18T07:58:01;38.60;;;14.83;;
16735;SDS011;17990;49.548;9.730;2022-12-18T08:00:28;57.83;;;15.67;;
16735;SDS011;17990;49.548;9.730;2022-12-18T08:02:55;35.73;;;14.47;;
16735;SDS011;17990;49.548;9.730;2022-12-18T08:05:23;34.77;;;14.87;;
16735;SDS011;17990;49.548;9.730;2022-12-18T08:07:50;37.57;;;14.13;;
16735;SDS011;17990;49.548;9.730;2022-12-18T08:10:17;40.87;;;16.73;;
16735;SDS011;17990;49.548;9.730;2022-12-18T08:12:44;41.00;;;17.93;;
16735;SDS011;17990;49.548;9.730;2022-12-18T08:15:13;42.87;;;18.53;;
16735;SDS011;17990;49.548;9.730;2022-12-18T08:17:40;54.37;;;19.43;;
16735;SDS011;17990;49.548;9.730;2022-12-18T08:20:07;44.17;;;17.50;;
16735;SDS011;17990;49.548;9.730;2022-12-18T08:22:35;41.00;;;16.83;;
16735;SDS011;17990;49.548;9.730;2022-12-18T08:25:04;37.40;;;17.13;;
16735;SDS011;17990;49.548;9.730;2022-12-18T08:27:32;38.97;;;17.23;;
16735;SDS011;17990;49.548;9.730;2022-12-18T08:29:59;41.13;;;18.40;;
16735;SDS011;17990;49.548;9.730;2022-12-18T08:32:27;40.80;;;17.60;;
16735;SDS011;17990;49.548;9.730;2022-12-18T08:34:54;45.40;;;18.10;;
16735;SDS011;17990;49.548;9.730;2022-12-18T08:37:21;37.57;;;18.17;;
16735;SDS011;17990;49.548;9.730;2022-12-18T08:39:48;39.90;;;18.47;;
16735;SDS011;17990;49.548;9.730;2022-12-18T08:42:15;43.00;;;18.87;;
16735;SDS011;17990;49.548;9.730;2022-12-18T08:44:59;41.20;;;18.83;;
16735;SDS011;17990;49.548;9.730;2022-12-18T08:47:28;35.20;;;17.50;;
16735;SDS011;17990;49.548;9.730;2022-12-18T08:49:55;40.73;;;18.30;;
16735;SDS011;17990;49.548;9.730;2022-12-18T08:52:22;40.97;;;18.87;;
16735;SDS011;17990;49.548;9.730;2022-12-18T08:54:48;57.73;;;19.37;;
16735;SDS011;17990;49.548;9.730;2022-12-18T08:57:15;41.53;;;18.67;;
16735;SDS011;17990;49.548;9.730;2022-12-18T08:59:43;38.70;;;17.73;;
16735;SDS011;17990;49.548;9.730;2022-12-18T09:02:10;35.33;;;17.63;;
16735;SDS011;17990;49.548;9.730;2022-12-18T09:04:38;40.07;;;19.37;;
16735;SDS011;17990;49.548;9.730;2022-12-18T09:07:06;49.20;;;21.60;;
16735;SDS011;17990;49.548;9.730;2022-12-18T09:09:34;44.13;;;19.00;;
16735;SDS011;17990;49.548;9.730;2022-12-18T09:12:02;42.13;;;20.47;;
16735;SDS011;17990;49.548;9.730;2022-12-18T09:14:29;46.23;;;21.70;;
16735;SDS011;17990;49.548;9.730;2022-12-18T09:16:56;47.30;;;21.83;;
16735;SDS011;17990;49.548;9.730;2022-12-18T09:19:23;48.43;;;19.40;;
16735;SDS011;17990;49.548;9.730;2022-12-18T09:21:51;61.37;;;20.30;;
16735;SDS011;17990;49.548;9.730;2022-12-18T09:24:18;49.53;;;20.43;;
16735;SDS011;17990;49.548;9.730;2022-12-18T09:26:45;41.80;;;19.17;;
16735;SDS011;17990;49.548;9.730;2022-12-18T09:29:12;46.17;;;20.87;;
16735;SDS011;17990;49.548;9.730;2022-12-18T09:31:39;46.50;;;21.13;;
16735;SDS011;17990;49.548;9.730;2022-12-18T09:34:06;40.90;;;17.97;;
16735;SDS011;17990;49.548;9.730;2022-12-18T09:36:33;36.70;;;17.03;;
16735;SDS011;17990;49.548;9.730;2022-12-18T09:39:02;39.93;;;19.77;;
16735;SDS011;17990;49.548;9.730;2022-12-18T09:41:34;42.57;;;18.63;;
16735;SDS011;17990;49.548;9.730;2022-12-18T09:44:11;49.00;;;19.70;;
16735;SDS011;17990;49.548;9.730;2022-12-18T09:46:46;49.47;;;21.10;;
16735;SDS011;17990;49.548;9.730;2022-12-18T09:49:21;45.90;;;20.00;;
16735;SDS011;17990;49.548;9.730;2022-12-18T09:51:52;46.07;;;19.97;;
16735;SDS011;17990;49.548;9.730;2022-12-18T09:54:25;49.27;;;20.80;;
16735;SDS011;17990;49.548;9.730;2022-12-18T09:56:58;48.07;;;20.93;;
16735;SDS011;17990;49.548;9.730;2022-12-18T09:59:26;45.07;;;19.80;;
16735;SDS011;17990;49.548;9.730;2022-12-18T10:02:00;50.47;;;21.13;;
16735;SDS011;17990;49.548;9.730;2022-12-18T10:04:42;52.17;;;22.33;;
16735;SDS011;17990;49.548;9.730;2022-12-18T10:07:10;57.13;;;22.83;;
16735;SDS011;17990;49.548;9.730;2022-12-18T10:09:45;50.30;;;23.10;;
16735;SDS011;17990;49.548;9.730;2022-12-18T10:12:21;55.63;;;24.03;;
16735;SDS011;17990;49.548;9.730;2022-12-18T10:14:57;55.80;;;26.13;;
16735;SDS011;17990;49.548;9.730;2022-12-18T10:17:33;56.53;;;26.33;;
16735;SDS011;17990;49.548;9.730;2022-12-18T10:20:09;61.57;;;26.67;;
16735;SDS011;17990;49.548;9.730;2022-12-18T10:22:44;58.37;;;24.73;;
16735;SDS011;17990;49.548;9.730;2022-12-18T10:25:21;53.00;;;24.53;;
16735;SDS011;17990;49.548;9.730;2022-12-18T10:27:52;51.67;;;23.40;;
16735;SDS011;17990;49.548;9.730;2022-12-18T10:30:24;49.50;;;22.47;;
16735;SDS011;17990;49.548;9.730;2022-12-18T10:32:58;53.30;;;22.80;;
16735;SDS011;17990;49.548;9.730;2022-12-18T10:35:27;56.60;;;23.10;;
16735;SDS011;17990;49.548;9.730;2022-12-18T10:38:02;54.10;;;23.97;;
16735;SDS011;17990;49.548;9.730;2022-12-18T10:40:36;65.40;;;25.60;;
16735;SDS011;17990;49.548;9.730;2022-12-18T10:43:19;61.70;;;24.17;;
16735;SDS011;17990;49.548;9.730;2022-12-18T10:45:58;65.70;;;23.53;;
16735;SDS011;17990;49.548;9.730;2022-12-18T10:48:31;53.17;;;22.30;;
16735;SDS011;17990;49.548;9.730;2022-12-18T10:51:01;55.73;;;22.70;;
16735;SDS011;17990;49.548;9.730;2022-12-18T10:53:29;50.60;;;22.97;;
16735;SDS011;17990;49.548;9.730;2022-12-18T10:56:02;48.53;;;21.37;;
16735;SDS011;17990;49.548;9.730;2022-12-18T10:58:33;47.23;;;22.60;;
16735;SDS011;17990;49.548;9.730;2022-12-18T11:01:07;43.20;;;21.67;;
16735;SDS011;17990;49.548;9.730;2022-12-18T11:03:37;53.03;;;23.20;;
16735;SDS011;17990;49.548;9.730;2022-12-18T11:06:08;49.90;;;22.67;;
16735;SDS011;17990;49.548;9.730;2022-12-18T11:08:40;53.53;;;21.63;;
16735;SDS011;17990;49.548;9.730;2022-12-18T11:11:17;50.87;;;22.60;;
16735;SDS011;17990;49.548;9.730;2022-12-18T11:13:51;52.10;;;24.67;;
16735;SDS011;17990;49.548;9.730;2022-12-18T11:16:29;59.53;;;24.57;;
16735;SDS011;17990;49.548;9.730;2022-12-18T11:19:09;53.33;;;23.30;;
16735;SDS011;17990;49.548;9.730;2022-12-18T11:21:49;48.50;;;23.83;;
16735;SDS011;17990;49.548;9.730;2022-12-18T11:24:20;60.07;;;25.10;;
16735;SDS011;17990;49.548;9.730;2022-12-18T11:26:56;61.30;;;27.07;;
16735;SDS011;17990;49.548;9.730;2022-12-18T11:29:34;49.40;;;23.57;;
16735;SDS011;17990;49.548;9.730;2022-12-18T11:35:03;51.03;;;23.33;;
16735;SDS011;17990;49.548;9.730;2022-12-18T11:37:47;55.87;;;24.73;;
16735;SDS011;17990;49.548;9.730;2022-12-18T11:40:24;48.50;;;24.33;;
16735;SDS011;17990;49.548;9.730;2022-12-18T11:42:59;64.77;;;26.90;;
16735;SDS011;17990;49.548;9.730;2022-12-18T11:45:33;77.83;;;32.70;;
16735;SDS011;17990;49.548;9.730;2022-12-18T11:48:06;82.17;;;33.53;;
16735;SDS011;17990;49.548;9.730;2022-12-18T11:50:44;78.27;;;34.23;;
16735;SDS011;17990;49.548;9.730;2022-12-18T11:53:16;69.10;;;31.27;;
16735;SDS011;17990;49.548;9.730;2022-12-18T11:55:47;71.40;;;29.97;;
16735;SDS011;17990;49.548;9.730;2022-12-18T11:58:31;63.73;;;28.80;;
16735;SDS011;17990;49.548;9.730;2022-12-18T12:01:13;64.63;;;29.47;;
16735;SDS011;17990;49.548;9.730;2022-12-18T12:04:01;62.97;;;31.23;;
16735;SDS011;17990;49.548;9.730;2022-12-18T12:06:49;72.37;;;31.80;;
16735;SDS011;17990;49.548;9.730;2022-12-18T12:09:31;56.83;;;27.80;;
16735;SDS011;17990;49.548;9.730;2022-12-18T12:12:12;52.57;;;26.87;;
16735;SDS011;17990;49.548;9.730;2022-12-18T12:14:57;55.13;;;26.97;;
16735;SDS011;17990;49.548;9.730;2022-12-18T12:17:38;54.23;;;26.83;;
16735;SDS011;17990;49.548;9.730;2022-12-18T12:20:13;48.83;;;23.70;;
16735;SDS011;17990;49.548;9.730;2022-12-18T12:22:49;48.60;;;22.97;;
16735;SDS011;17990;49.548;9.730;2022-12-18T12:25:28;49.00;;;23.70;;
16735;SDS011;17990;49.548;9.730;2022-12-18T12:28:13;51.17;;;22.57;;
16735;SDS011;17990;49.548;9.730;2022-12-18T12:30:54;44.50;;;22.10;;
16735;SDS011;17990;49.548;9.730;2022-12-18T12:33:34;40.60;;;20.00;;
16735;SDS011;17990;49.548;9.730;2022-12-18T12:36:10;40.33;;;20.47;;
16735;SDS011;17990;49.548;9.730;2022-12-18T12:38:47;39.13;;;20.03;;
16735;SDS011;17990;49.548;9.730;2022-12-18T12:41:18;47.23;;;20.43;;
16735;SDS011;17990;49.548;9.730;2022-12-18T12:44:07;41.67;;;19.80;;
16735;SDS011;17990;49.548;9.730;2022-12-18T12:46:44;36.57;;;17.57;;
16735;SDS011;17990;49.548;9.730;2022-12-18T12:49:13;35.60;;;19.27;;
16735;SDS011;17990;49.548;9.730;2022-12-18T12:51:44;31.93;;;15.03;;
16735;SDS011;17990;49.548;9.730;2022-12-18T12:54:19;29.53;;;14.50;;
16735;SDS011;17990;49.548;9.730;2022-12-18T12:56:50;29.50;;;14.47;;
16735;SDS011;17990;49.548;9.730;2022-12-18T12:59:25;29.93;;;15.00;;
16735;SDS011;17990;49.548;9.730;2022-12-18T13:02:04;31.80;;;14.33;;
16735;SDS011;17990;49.548;9.730;2022-12-18T13:04:44;27.97;;;13.90;;
16735;SDS011;17990;49.548;9.730;2022-12-18T13:07:17;31.63;;;14.33;;
16735;SDS011;17990;49.548;9.730;2022-12-18T13:10:13;27.50;;;13.87;;
16735;SDS011;17990;49.548;9.730;2022-12-18T13:12:52;27.07;;;13.63;;
16735;SDS011;17990;49.548;9.730;2022-12-18T13:15:24;30.47;;;14.40;;
16735;SDS011;17990;49.548;9.730;2022-12-18T13:18:05;28.63;;;12.97;;
16735;SDS011;17990;49.548;9.730;2022-12-18T13:20:45;27.97;;;13.93;;
16735;SDS011;17990;49.548;9.730;2022-12-18T13:23:19;30.60;;;14.90;;
16735;SDS011;17990;49.548;9.730;2022-12-18T13:25:53;31.10;;;14.73;;
16735;SDS011;17990;49.548;9.730;2022-12-18T13:28:22;35.23;;;16.50;;
16735;SDS011;17990;49.548;9.730;2022-12-18T13:34:26;32.00;;;15.10;;
16735;SDS011;17990;49.548;9.730;2022-12-18T13:36:55;33.67;;;14.90;;
16735;SDS011;17990;49.548;9.730;2022-12-18T13:40:06;28.37;;;14.07;;
16735;SDS011;17990;49.548;9.730;2022-12-18T13:46:19;30.33;;;14.57;;
16735;SDS011;17990;49.548;9.730;2022-12-18T13:48:50;30.23;;;14.63;;
16735;SDS011;17990;49.548;9.730;2022-12-18T13:51:22;31.27;;;14.10;;
16735;SDS011;17990;49.548;9.730;2022-12-18T13:53:51;28.37;;;14.70;;
16735;SDS011;17990;49.548;9.730;2022-12-18T13:56:23;36.17;;;16.83;;
16735;SDS011;17990;49.548;9.730;2022-12-18T14:01:42;38.03;;;17.93;;
16735;SDS011;17990;49.548;9.730;2022-12-18T14:04:19;37.47;;;17.80;;
16735;SDS011;17990;49.548;9.730;2022-12-18T14:06:53;32.73;;;16.27;;
16735;SDS011;17990;49.548;9.730;2022-12-18T14:09:25;35.00;;;16.23;;
16735;SDS011;17990;49.548;9.730;2022-12-18T14:11:56;37.20;;;19.20;;
16735;SDS011;17990;49.548;9.730;2022-12-18T14:14:39;39.93;;;19.63;;
16735;SDS011;17990;49.548;9.730;2022-12-18T14:17:09;57.75;;;27.13;;
16735;SDS011;17990;49.548;9.730;2022-12-18T14:19:40;65.27;;;31.23;;
16735;SDS011;17990;49.548;9.730;2022-12-18T14:22:12;33.80;;;17.17;;
16735;SDS011;17990;49.548;9.730;2022-12-18T14:24:43;39.90;;;18.17;;
16735;SDS011;17990;49.548;9.730;2022-12-18T14:27:21;36.77;;;17.80;;
16735;SDS011;17990;49.548;9.730;2022-12-18T14:29:50;43.43;;;21.70;;
16735;SDS011;17990;49.548;9.730;2022-12-18T14:32:18;35.70;;;17.77;;
16735;SDS011;17990;49.548;9.730;2022-12-18T14:34:46;36.73;;;17.87;;
16735;SDS011;17990;49.548;9.730;2022-12-18T14:37:15;34.53;;;16.93;;
16735;SDS011;17990;49.548;9.730;2022-12-18T14:39:53;38.43;;;19.10;;
16735;SDS011;17990;49.548;9.730;2022-12-18T14:42:24;31.77;;;16.27;;
16735;SDS011;17990;49.548;9.730;2022-12-18T14:48:05;32.50;;;14.90;;
16735;SDS011;17990;49.548;9.730;2022-12-18T14:50:34;34.90;;;15.43;;
16735;SDS011;17990;49.548;9.730;2022-12-18T14:53:01;35.57;;;17.37;;
16735;SDS011;17990;49.548;9.730;2022-12-18T14:55:28;37.80;;;17.80;;
16735;SDS011;17990;49.548;9.730;2022-12-18T14:57:56;33.80;;;17.07;;
16735;SDS011;17990;49.548;9.730;2022-12-18T15:00:24;29.50;;;14.30;;